createdAt,value
2019-01-27T12:59:14.925Z,1.20
2019-01-27T13:01:44.337Z,1.40
2019-01-27T13:04:16.432Z,0.90
2019-01-27T13:06:45.846Z,0.70
2019-01-27T13:09:15.308Z,1.27
2019-01-27T13:11:44.738Z,0.90
2019-01-27T13:14:14.158Z,0.50
2019-01-27T13:16:43.514Z,0.70
2019-01-27T13:19:12.868Z,0.60
2019-01-27T13:21:42.259Z,0.80
2019-01-27T13:24:11.739Z,0.70
2019-01-27T13:26:41.094Z,0.80
2019-01-27T13:29:10.458Z,0.67
2019-01-27T13:31:39.855Z,0.70
2019-01-27T13:34:09.323Z,0.60
2019-01-27T13:36:38.743Z,0.60
2019-01-27T13:39:09.824Z,0.50
2019-01-27T13:41:39.258Z,0.60
2019-01-27T13:44:08.673Z,0.53
2019-01-27T13:46:38.041Z,0.57
2019-01-27T13:49:07.556Z,0.50
2019-01-27T13:51:37.150Z,0.70
2019-01-27T13:54:06.653Z,1.07
2019-01-27T13:56:35.993Z,0.87
2019-01-27T13:59:05.344Z,0.60
2019-01-27T14:01:34.682Z,0.90
2019-01-27T14:04:05.112Z,0.97
2019-01-27T14:06:35.287Z,0.77
2019-01-27T14:09:06.770Z,1.10
2019-01-27T14:11:36.842Z,1.83
2019-01-27T14:14:06.230Z,1.33
2019-01-27T14:16:35.696Z,0.87
2019-01-27T14:19:05.040Z,1.00
2019-01-27T14:21:34.468Z,1.17
2019-01-27T14:24:04.428Z,0.63
2019-01-27T14:26:33.961Z,1.90
2019-01-27T14:29:03.584Z,3.30
2019-01-27T14:31:32.946Z,2.33
2019-01-27T14:34:02.286Z,1.50
2019-01-27T14:36:31.642Z,1.43
2019-01-27T14:39:01.004Z,1.10
2019-01-27T14:41:32.061Z,0.60
2019-01-27T14:44:01.441Z,1.20
2019-01-27T14:46:30.928Z,0.90
2019-01-27T14:49:00.308Z,0.80
2019-01-27T14:51:29.739Z,0.90
2019-01-27T14:53:59.177Z,1.00
2019-01-27T14:56:28.524Z,1.10
2019-01-27T14:58:57.891Z,1.77
2019-01-27T15:01:27.236Z,2.90
2019-01-27T15:03:56.661Z,1.43
2019-01-27T15:06:26.028Z,1.43
2019-01-27T15:08:55.450Z,0.87
2019-01-27T15:11:24.898Z,0.80
2019-01-27T15:13:54.244Z,0.70
2019-01-27T15:16:23.664Z,0.70
2019-01-27T15:18:53.103Z,0.70
2019-01-27T15:21:22.461Z,0.67
2019-01-27T15:23:51.922Z,0.60
2019-01-27T15:26:21.296Z,0.63
2019-01-27T15:28:50.712Z,0.60
2019-01-27T15:31:20.169Z,0.50
2019-01-27T15:33:56.096Z,0.50
2019-01-27T15:36:25.936Z,0.60
2019-01-27T15:38:55.464Z,0.70
2019-01-27T15:41:24.887Z,0.60
2019-01-27T15:43:54.314Z,0.70
2019-01-27T15:46:23.922Z,0.60
2019-01-27T15:48:53.606Z,0.60
2019-01-27T15:51:23.014Z,0.73
2019-01-27T15:53:52.356Z,0.90
2019-01-27T15:56:21.715Z,1.03
2019-01-27T15:58:52.239Z,0.80
2019-01-27T16:01:21.603Z,0.60
2019-01-27T16:03:51.038Z,0.70
2019-01-27T16:06:22.110Z,0.87
2019-01-27T16:08:51.737Z,1.10
2019-01-27T16:11:21.169Z,1.00
2019-01-27T16:13:50.619Z,0.87
2019-01-27T16:16:20.019Z,1.00
2019-01-27T16:18:49.406Z,1.00
2019-01-27T16:21:18.777Z,1.27
2019-01-27T16:23:49.052Z,1.20
2019-01-27T16:26:18.449Z,0.97
2019-01-27T16:28:47.833Z,1.23
2019-01-27T16:31:19.065Z,1.00
2019-01-27T16:33:50.211Z,1.13
2019-01-27T16:36:19.697Z,1.53
2019-01-27T16:38:49.115Z,1.47
2019-01-27T16:41:18.494Z,1.50
2019-01-27T16:43:50.419Z,1.10
2019-01-27T16:46:19.805Z,1.10
2019-01-27T16:48:49.229Z,1.90
2019-01-27T16:51:20.207Z,1.87
2019-01-27T16:53:50.809Z,1.63
2019-01-27T16:56:20.191Z,1.50
2019-01-27T16:58:49.660Z,1.50
2019-01-27T17:01:19.292Z,1.60
2019-01-27T17:03:48.838Z,2.00
2019-01-27T17:06:18.261Z,1.77
2019-01-27T17:08:47.676Z,1.77
2019-01-27T17:11:17.404Z,1.37
2019-01-27T17:13:46.849Z,1.57
2019-01-27T17:16:16.266Z,1.23
2019-01-27T17:18:45.846Z,1.53
2019-01-27T17:21:15.310Z,2.17
2019-01-27T17:23:44.795Z,2.13
2019-01-27T17:26:14.157Z,1.90
2019-01-27T17:28:43.931Z,2.97
2019-01-27T17:31:13.305Z,3.00
2019-01-27T17:33:42.799Z,2.73
2019-01-27T17:36:12.333Z,2.93
2019-01-27T17:38:41.840Z,3.13
2019-01-27T17:41:13.288Z,4.33
2019-01-27T17:43:42.752Z,4.33
2019-01-27T17:46:12.191Z,2.80
2019-01-27T17:48:41.626Z,2.90
2019-01-27T17:51:11.146Z,3.20
2019-01-27T17:53:42.285Z,2.90
2019-01-27T17:56:11.650Z,2.93
2019-01-27T17:58:54.418Z,2.63
2019-01-27T18:01:27.021Z,2.83
2019-01-27T18:04:01.093Z,2.33
2019-01-27T18:06:32.201Z,2.27
2019-01-27T18:09:09.407Z,2.53
2019-01-27T18:11:40.972Z,2.90
2019-01-27T18:14:11.974Z,3.10
2019-01-27T18:16:41.429Z,2.70
2019-01-27T18:19:10.785Z,3.17
2019-01-27T18:21:40.211Z,3.33
2019-01-27T18:24:09.659Z,3.23
2019-01-27T18:26:39.371Z,3.03
2019-01-27T18:29:08.822Z,3.73
2019-01-27T18:31:38.425Z,4.43
2019-01-27T18:34:07.845Z,4.20
2019-01-27T18:36:37.286Z,4.70
2019-01-27T18:39:09.639Z,5.30
2019-01-27T18:41:39.684Z,3.90
2019-01-27T18:44:09.317Z,3.83
2019-01-27T18:46:38.780Z,5.40
2019-01-27T18:49:08.137Z,7.73
2019-01-27T18:51:37.793Z,6.30
2019-01-27T18:54:14.770Z,5.67
2019-01-27T18:56:54.958Z,4.80
2019-01-27T18:59:32.139Z,5.40
2019-01-27T19:02:13.185Z,5.63
2019-01-27T19:04:50.474Z,6.60
2019-01-27T19:07:21.558Z,6.27
2019-01-27T19:09:55.454Z,4.93
2019-01-27T19:12:35.426Z,4.70
2019-01-27T19:15:27.740Z,4.83
2019-01-27T19:18:15.151Z,5.07
2019-01-27T19:20:46.159Z,5.23
2019-01-27T19:23:23.149Z,10.47
2019-01-27T19:26:06.003Z,7.07
2019-01-27T19:28:52.238Z,5.60
2019-01-27T19:31:23.332Z,5.60
2019-01-27T19:33:54.380Z,6.83
2019-01-27T19:36:25.468Z,6.27
2019-01-27T19:38:56.467Z,6.60
2019-01-27T19:41:39.473Z,6.77
2019-01-27T19:44:16.597Z,7.50
2019-01-27T19:46:56.770Z,9.37
2019-01-27T19:49:33.554Z,8.87
2019-01-27T19:52:10.358Z,8.53
2019-01-27T19:54:53.467Z,8.70
2019-01-27T19:57:36.510Z,8.43
2019-01-27T20:00:10.596Z,7.97
2019-01-27T20:02:41.738Z,7.07
2019-01-27T20:05:29.127Z,6.10
2019-01-27T20:08:21.904Z,5.93
2019-01-27T20:10:53.302Z,6.77
2019-01-27T20:13:24.380Z,7.10
2019-01-27T20:16:11.909Z,7.70
2019-01-27T20:19:00.824Z,6.37
2019-01-27T20:24:50.784Z,5.00
2019-01-27T20:27:21.878Z,5.10
2019-01-27T20:30:11.224Z,4.37
2019-01-27T20:32:58.449Z,4.13
2019-01-27T20:35:41.348Z,4.47
2019-01-27T20:38:12.445Z,4.60
2019-01-27T20:40:49.079Z,3.90
2019-01-27T20:43:25.884Z,4.07
2019-01-27T20:46:02.889Z,3.60
2019-01-27T20:48:39.671Z,3.80
2019-01-27T20:51:30.743Z,3.90
2019-01-27T20:54:04.745Z,3.50
2019-01-27T20:56:35.740Z,2.97
2019-01-27T20:59:21.929Z,3.03
2019-01-27T21:01:53.094Z,3.10
2019-01-27T21:04:24.155Z,2.80
2019-01-27T21:06:57.878Z,3.53
2019-01-27T21:09:34.652Z,3.30
2019-01-27T21:12:06.285Z,3.60
2019-01-27T21:14:37.446Z,3.20
2019-01-27T21:17:11.487Z,3.67
2019-01-27T21:19:42.930Z,3.47
2019-01-27T21:22:12.436Z,3.13
2019-01-27T21:24:41.853Z,3.67
2019-01-27T21:27:11.707Z,3.63
2019-01-27T21:29:41.188Z,3.60
2019-01-27T21:32:10.576Z,4.10
2019-01-27T21:34:40.042Z,3.63
2019-01-27T21:37:10.984Z,4.03
2019-01-27T21:39:40.399Z,3.37
2019-01-27T21:42:09.844Z,3.27
2019-01-27T21:44:39.287Z,3.30
2019-01-27T21:47:08.710Z,3.43
2019-01-27T21:49:38.065Z,2.97
2019-01-27T21:52:07.529Z,3.67
2019-01-27T21:54:36.964Z,3.50
2019-01-27T21:57:06.505Z,3.40
2019-01-27T21:59:35.850Z,3.40
2019-01-27T22:02:05.349Z,3.53
2019-01-27T22:04:34.792Z,3.33
2019-01-27T22:07:04.389Z,3.73
2019-01-27T22:09:33.801Z,3.50
2019-01-27T22:12:03.247Z,3.60
2019-01-27T22:14:32.751Z,3.03
2019-01-27T22:17:02.187Z,3.57
2019-01-27T22:19:32.139Z,4.00
2019-01-27T22:22:01.794Z,4.10
2019-01-27T22:24:31.235Z,4.07
2019-01-27T22:27:00.653Z,4.23
2019-01-27T22:29:30.099Z,4.10
2019-01-27T22:31:59.516Z,3.83
2019-01-27T22:34:28.898Z,3.90
2019-01-27T22:36:58.314Z,3.70
2019-01-27T22:39:27.725Z,3.73
2019-01-27T22:41:57.139Z,4.30
2019-01-27T22:44:26.518Z,4.83
2019-01-27T22:46:55.967Z,4.67
2019-01-27T22:49:25.432Z,5.30
2019-01-27T22:51:54.835Z,5.97
2019-01-27T22:54:24.201Z,4.60
2019-01-27T22:56:53.638Z,5.00
2019-01-27T22:59:23.092Z,5.17
2019-01-27T23:01:52.532Z,5.37
2019-01-27T23:04:22.037Z,5.33
2019-01-27T23:06:51.461Z,5.00
2019-01-27T23:09:20.989Z,5.07
2019-01-27T23:11:50.391Z,4.97
2019-01-27T23:14:20.837Z,4.93
2019-01-27T23:16:50.191Z,5.33
2019-01-27T23:19:19.549Z,5.77
2019-01-27T23:21:48.897Z,5.67
2019-01-27T23:24:18.330Z,5.60
2019-01-27T23:26:47.688Z,5.50
2019-01-27T23:29:18.125Z,4.90
2019-01-27T23:31:47.510Z,5.00
2019-01-27T23:34:16.943Z,4.67
2019-01-27T23:36:48.449Z,5.33
2019-01-27T23:39:17.904Z,5.10
2019-01-27T23:41:47.378Z,5.10
2019-01-27T23:44:16.896Z,4.10
2019-01-27T23:46:46.255Z,4.23
2019-01-27T23:49:15.681Z,4.53
2019-01-27T23:51:45.039Z,4.57
2019-01-27T23:54:14.458Z,5.13
2019-01-27T23:56:43.828Z,5.23
2019-01-27T23:59:13.248Z,5.37
